sensor_id;sensor_type;location;lat;lon;timestamp;P1;durP1;ratioP1;P2;durP2;ratioP2
43152;SDS011;28756;49.064;9.290;2022-09-01T00:01:58;3.45;;;3.15;;
43152;SDS011;28756;49.064;9.290;2022-09-01T00:04:24;3.90;;;3.47;;
43152;SDS011;28756;49.064;9.290;2022-09-01T00:06:51;4.25;;;3.30;;
43152;SDS011;28756;49.064;9.290;2022-09-01T00:09:19;3.95;;;3.55;;
43152;SDS011;28756;49.064;9.290;2022-09-01T00:11:48;4.18;;;3.60;;
43152;SDS011;28756;49.064;9.290;2022-09-01T00:14:20;3.63;;;3.22;;
43152;SDS011;28756;49.064;9.290;2022-09-01T00:16:50;4.10;;;3.70;;
43152;SDS011;28756;49.064;9.290;2022-09-01T00:19:16;4.38;;;3.97;;
43152;SDS011;28756;49.064;9.290;2022-09-01T00:21:43;4.25;;;3.85;;
43152;SDS011;28756;49.064;9.290;2022-09-01T00:24:10;3.50;;;3.20;;
43152;SDS011;28756;49.064;9.290;2022-09-01T00:26:39;4.25;;;3.85;;
43152;SDS011;28756;49.064;9.290;2022-09-01T00:29:05;3.40;;;3.10;;
43152;SDS011;28756;49.064;9.290;2022-09-01T00:31:31;4.18;;;3.78;;
43152;SDS011;28756;49.064;9.290;2022-09-01T00:33:58;4.30;;;3.80;;
43152;SDS011;28756;49.064;9.290;2022-09-01T00:36:24;4.45;;;3.70;;
43152;SDS011;28756;49.064;9.290;2022-09-01T00:38:50;4.78;;;3.60;;
43152;SDS011;28756;49.064;9.290;2022-09-01T00:41:17;5.10;;;4.05;;
43152;SDS011;28756;49.064;9.290;2022-09-01T00:43:49;3.88;;;3.45;;
43152;SDS011;28756;49.064;9.290;2022-09-01T00:46:42;3.55;;;3.25;;
43152;SDS011;28756;49.064;9.290;2022-09-01T00:49:18;3.83;;;3.50;;
43152;SDS011;28756;49.064;9.290;2022-09-01T00:52:00;4.82;;;4.10;;
43152;SDS011;28756;49.064;9.290;2022-09-01T00:54:32;3.95;;;3.40;;
43152;SDS011;28756;49.064;9.290;2022-09-01T00:57:02;4.60;;;3.55;;
43152;SDS011;28756;49.064;9.290;2022-09-01T00:59:29;3.75;;;3.38;;
43152;SDS011;28756;49.064;9.290;2022-09-01T01:01:55;4.70;;;4.00;;
43152;SDS011;28756;49.064;9.290;2022-09-01T01:04:22;5.68;;;4.35;;
43152;SDS011;28756;49.064;9.290;2022-09-01T01:06:52;4.00;;;3.50;;
43152;SDS011;28756;49.064;9.290;2022-09-01T01:09:28;4.78;;;3.72;;
43152;SDS011;28756;49.064;9.290;2022-09-01T01:11:58;3.85;;;3.42;;
43152;SDS011;28756;49.064;9.290;2022-09-01T01:14:26;4.38;;;3.72;;
43152;SDS011;28756;49.064;9.290;2022-09-01T01:16:55;4.57;;;3.70;;
43152;SDS011;28756;49.064;9.290;2022-09-01T01:19:36;4.10;;;3.70;;
43152;SDS011;28756;49.064;9.290;2022-09-01T01:22:34;3.83;;;3.33;;
43152;SDS011;28756;49.064;9.290;2022-09-01T01:25:26;5.65;;;4.22;;
43152;SDS011;28756;49.064;9.290;2022-09-01T01:28:07;4.40;;;4.00;;
43152;SDS011;28756;49.064;9.290;2022-09-01T01:30:36;5.43;;;4.78;;
43152;SDS011;28756;49.064;9.290;2022-09-01T01:33:05;6.88;;;5.32;;
43152;SDS011;28756;49.064;9.290;2022-09-01T01:35:32;5.20;;;4.35;;
43152;SDS011;28756;49.064;9.290;2022-09-01T01:38:00;6.28;;;4.40;;
43152;SDS011;28756;49.064;9.290;2022-09-01T01:40:28;5.25;;;4.68;;
43152;SDS011;28756;49.064;9.290;2022-09-01T01:42:55;4.88;;;4.07;;
43152;SDS011;28756;49.064;9.290;2022-09-01T01:45:24;4.85;;;4.35;;
43152;SDS011;28756;49.064;9.290;2022-09-01T01:47:51;5.03;;;4.15;;
43152;SDS011;28756;49.064;9.290;2022-09-01T01:50:19;4.63;;;4.22;;
43152;SDS011;28756;49.064;9.290;2022-09-01T01:52:49;6.05;;;4.80;;
43152;SDS011;28756;49.064;9.290;2022-09-01T01:55:15;5.65;;;4.30;;
43152;SDS011;28756;49.064;9.290;2022-09-01T01:57:43;5.72;;;5.15;;
43152;SDS011;28756;49.064;9.290;2022-09-01T02:00:15;5.90;;;5.32;;
43152;SDS011;28756;49.064;9.290;2022-09-01T02:02:48;5.47;;;4.72;;
43152;SDS011;28756;49.064;9.290;2022-09-01T02:05:19;6.15;;;5.55;;
43152;SDS011;28756;49.064;9.290;2022-09-01T02:07:57;5.25;;;4.75;;
43152;SDS011;28756;49.064;9.290;2022-09-01T02:10:30;5.32;;;4.78;;
43152;SDS011;28756;49.064;9.290;2022-09-01T02:13:00;5.50;;;4.55;;
43152;SDS011;28756;49.064;9.290;2022-09-01T02:15:31;5.93;;;4.30;;
43152;SDS011;28756;49.064;9.290;2022-09-01T02:18:11;7.30;;;6.03;;
43152;SDS011;28756;49.064;9.290;2022-09-01T02:20:42;5.15;;;4.63;;
43152;SDS011;28756;49.064;9.290;2022-09-01T02:23:10;4.90;;;4.40;;
43152;SDS011;28756;49.064;9.290;2022-09-01T02:25:40;5.97;;;4.93;;
43152;SDS011;28756;49.064;9.290;2022-09-01T02:28:11;5.95;;;4.20;;
43152;SDS011;28756;49.064;9.290;2022-09-01T02:30:43;4.63;;;4.22;;
43152;SDS011;28756;49.064;9.290;2022-09-01T02:33:13;5.38;;;4.57;;
43152;SDS011;28756;49.064;9.290;2022-09-01T02:35:50;5.43;;;4.88;;
43152;SDS011;28756;49.064;9.290;2022-09-01T02:38:20;4.70;;;4.30;;
43152;SDS011;28756;49.064;9.290;2022-09-01T02:40:50;6.30;;;5.45;;
43152;SDS011;28756;49.064;9.290;2022-09-01T02:43:17;5.90;;;4.68;;
43152;SDS011;28756;49.064;9.290;2022-09-01T02:45:48;4.90;;;4.40;;
43152;SDS011;28756;49.064;9.290;2022-09-01T02:48:24;4.65;;;4.20;;
43152;SDS011;28756;49.064;9.290;2022-09-01T02:50:57;6.10;;;5.20;;
43152;SDS011;28756;49.064;9.290;2022-09-01T02:53:26;5.10;;;4.60;;
43152;SDS011;28756;49.064;9.290;2022-09-01T02:55:55;6.75;;;5.25;;
43152;SDS011;28756;49.064;9.290;2022-09-01T02:58:26;5.00;;;4.50;;
43152;SDS011;28756;49.064;9.290;2022-09-01T03:00:57;6.32;;;5.18;;
43152;SDS011;28756;49.064;9.290;2022-09-01T03:03:23;6.90;;;5.57;;
43152;SDS011;28756;49.064;9.290;2022-09-01T03:05:52;8.93;;;6.35;;
43152;SDS011;28756;49.064;9.290;2022-09-01T03:08:24;6.72;;;5.93;;
43152;SDS011;28756;49.064;9.290;2022-09-01T03:10:50;6.43;;;4.82;;
43152;SDS011;28756;49.064;9.290;2022-09-01T03:13:19;7.70;;;5.95;;
43152;SDS011;28756;49.064;9.290;2022-09-01T03:15:48;6.95;;;5.95;;
43152;SDS011;28756;49.064;9.290;2022-09-01T03:18:15;5.70;;;5.07;;
43152;SDS011;28756;49.064;9.290;2022-09-01T03:20:42;6.63;;;5.93;;
43152;SDS011;28756;49.064;9.290;2022-09-01T03:23:11;7.20;;;6.50;;
43152;SDS011;28756;49.064;9.290;2022-09-01T03:25:40;7.47;;;6.38;;
43152;SDS011;28756;49.064;9.290;2022-09-01T03:28:07;5.97;;;5.38;;
43152;SDS011;28756;49.064;9.290;2022-09-01T03:30:34;7.97;;;7.03;;
43152;SDS011;28756;49.064;9.290;2022-09-01T03:33:05;7.40;;;6.60;;
43152;SDS011;28756;49.064;9.290;2022-09-01T03:35:31;8.63;;;7.72;;
43152;SDS011;28756;49.064;9.290;2022-09-01T03:37:58;8.38;;;6.18;;
43152;SDS011;28756;49.064;9.290;2022-09-01T03:40:26;8.45;;;6.65;;
43152;SDS011;28756;49.064;9.290;2022-09-01T03:43:00;8.27;;;6.05;;
43152;SDS011;28756;49.064;9.290;2022-09-01T03:45:29;7.47;;;6.05;;
43152;SDS011;28756;49.064;9.290;2022-09-01T03:48:02;6.47;;;5.80;;
43152;SDS011;28756;49.064;9.290;2022-09-01T03:50:34;6.53;;;5.22;;
43152;SDS011;28756;49.064;9.290;2022-09-01T03:53:04;6.47;;;5.63;;
43152;SDS011;28756;49.064;9.290;2022-09-01T03:55:32;6.55;;;5.60;;
43152;SDS011;28756;49.064;9.290;2022-09-01T03:58:00;6.28;;;5.60;;
43152;SDS011;28756;49.064;9.290;2022-09-01T04:00:30;7.35;;;6.63;;
43152;SDS011;28756;49.064;9.290;2022-09-01T04:03:08;7.75;;;6.53;;
43152;SDS011;28756;49.064;9.290;2022-09-01T04:05:37;6.97;;;6.10;;
43152;SDS011;28756;49.064;9.290;2022-09-01T04:08:08;7.10;;;6.40;;
43152;SDS011;28756;49.064;9.290;2022-09-01T04:10:38;7.00;;;5.65;;
43152;SDS011;28756;49.064;9.290;2022-09-01T04:13:15;6.75;;;6.03;;
43152;SDS011;28756;49.064;9.290;2022-09-01T04:15:55;6.75;;;5.93;;
43152;SDS011;28756;49.064;9.290;2022-09-01T04:18:23;7.38;;;6.43;;
43152;SDS011;28756;49.064;9.290;2022-09-01T04:20:51;7.15;;;6.38;;
43152;SDS011;28756;49.064;9.290;2022-09-01T04:23:24;6.53;;;5.63;;
43152;SDS011;28756;49.064;9.290;2022-09-01T04:26:04;6.63;;;5.78;;
43152;SDS011;28756;49.064;9.290;2022-09-01T04:28:35;6.40;;;5.78;;
43152;SDS011;28756;49.064;9.290;2022-09-01T04:31:07;6.43;;;5.28;;
43152;SDS011;28756;49.064;9.290;2022-09-01T04:33:38;6.40;;;5.75;;
43152;SDS011;28756;49.064;9.290;2022-09-01T04:36:05;6.63;;;5.38;;
43152;SDS011;28756;49.064;9.290;2022-09-01T04:38:46;7.65;;;6.53;;
43152;SDS011;28756;49.064;9.290;2022-09-01T04:41:18;5.80;;;5.20;;
43152;SDS011;28756;49.064;9.290;2022-09-01T04:43:46;8.32;;;6.90;;
43152;SDS011;28756;49.064;9.290;2022-09-01T04:46:18;7.70;;;6.47;;
43152;SDS011;28756;49.064;9.290;2022-09-01T04:48:45;5.85;;;5.25;;
43152;SDS011;28756;49.064;9.290;2022-09-01T04:51:12;7.18;;;6.22;;
43152;SDS011;28756;49.064;9.290;2022-09-01T04:53:39;6.70;;;6.00;;
43152;SDS011;28756;49.064;9.290;2022-09-01T04:56:07;7.40;;;6.60;;
43152;SDS011;28756;49.064;9.290;2022-09-01T04:58:34;9.48;;;7.60;;
43152;SDS011;28756;49.064;9.290;2022-09-01T05:01:01;10.02;;;8.30;;
43152;SDS011;28756;49.064;9.290;2022-09-01T05:03:37;11.25;;;8.93;;
43152;SDS011;28756;49.064;9.290;2022-09-01T05:06:11;12.07;;;9.57;;
43152;SDS011;28756;49.064;9.290;2022-09-01T05:08:41;10.20;;;8.63;;
43152;SDS011;28756;49.064;9.290;2022-09-01T05:11:09;11.05;;;8.25;;
43152;SDS011;28756;49.064;9.290;2022-09-01T05:13:37;11.32;;;9.10;;
43152;SDS011;28756;49.064;9.290;2022-09-01T05:16:04;12.07;;;9.57;;
43152;SDS011;28756;49.064;9.290;2022-09-01T05:18:37;10.90;;;9.07;;
43152;SDS011;28756;49.064;9.290;2022-09-01T05:21:09;13.48;;;10.20;;
43152;SDS011;28756;49.064;9.290;2022-09-01T05:23:35;11.75;;;9.60;;
43152;SDS011;28756;49.064;9.290;2022-09-01T05:26:04;12.93;;;10.10;;
43152;SDS011;28756;49.064;9.290;2022-09-01T05:28:45;12.32;;;9.75;;
43152;SDS011;28756;49.064;9.290;2022-09-01T05:31:13;13.40;;;10.35;;
43152;SDS011;28756;49.064;9.290;2022-09-01T05:33:43;11.65;;;9.27;;
43152;SDS011;28756;49.064;9.290;2022-09-01T05:36:14;12.68;;;9.35;;
43152;SDS011;28756;49.064;9.290;2022-09-01T05:38:44;13.82;;;10.10;;
43152;SDS011;28756;49.064;9.290;2022-09-01T05:41:12;12.50;;;9.45;;
43152;SDS011;28756;49.064;9.290;2022-09-01T05:43:41;11.45;;;8.98;;
43152;SDS011;28756;49.064;9.290;2022-09-01T05:46:19;10.70;;;8.07;;
43152;SDS011;28756;49.064;9.290;2022-09-01T05:48:48;12.93;;;8.63;;
43152;SDS011;28756;49.064;9.290;2022-09-01T05:51:17;11.50;;;8.48;;
43152;SDS011;28756;49.064;9.290;2022-09-01T05:53:46;11.45;;;8.27;;
43152;SDS011;28756;49.064;9.290;2022-09-01T05:56:18;9.23;;;6.93;;
43152;SDS011;28756;49.064;9.290;2022-09-01T05:58:46;9.32;;;7.28;;
43152;SDS011;28756;49.064;9.290;2022-09-01T06:01:23;11.50;;;8.40;;
43152;SDS011;28756;49.064;9.290;2022-09-01T06:03:53;10.68;;;8.60;;
43152;SDS011;28756;49.064;9.290;2022-09-01T06:06:26;11.20;;;8.30;;
43152;SDS011;28756;49.064;9.290;2022-09-01T06:08:54;10.68;;;8.13;;
43152;SDS011;28756;49.064;9.290;2022-09-01T06:11:23;9.30;;;7.78;;
43152;SDS011;28756;49.064;9.290;2022-09-01T06:13:51;10.73;;;7.63;;
43152;SDS011;28756;49.064;9.290;2022-09-01T06:16:19;12.32;;;8.32;;
43152;SDS011;28756;49.064;9.290;2022-09-01T06:18:45;9.77;;;7.95;;
43152;SDS011;28756;49.064;9.290;2022-09-01T06:21:11;9.07;;;7.93;;
43152;SDS011;28756;49.064;9.290;2022-09-01T06:23:42;10.15;;;8.00;;
43152;SDS011;28756;49.064;9.290;2022-09-01T06:26:17;8.23;;;7.22;;
43152;SDS011;28756;49.064;9.290;2022-09-01T06:29:04;10.95;;;7.20;;
43152;SDS011;28756;49.064;9.290;2022-09-01T06:31:35;8.70;;;7.45;;
43152;SDS011;28756;49.064;9.290;2022-09-01T06:34:05;9.68;;;7.20;;
43152;SDS011;28756;49.064;9.290;2022-09-01T06:36:34;8.77;;;7.32;;
43152;SDS011;28756;49.064;9.290;2022-09-01T06:39:04;8.57;;;7.32;;
43152;SDS011;28756;49.064;9.290;2022-09-01T06:41:32;9.10;;;7.57;;
43152;SDS011;28756;49.064;9.290;2022-09-01T06:43:58;8.07;;;7.10;;
43152;SDS011;28756;49.064;9.290;2022-09-01T06:46:25;10.98;;;8.05;;
43152;SDS011;28756;49.064;9.290;2022-09-01T06:48:53;8.48;;;7.28;;
43152;SDS011;28756;49.064;9.290;2022-09-01T06:51:22;8.65;;;7.38;;
43152;SDS011;28756;49.064;9.290;2022-09-01T06:53:51;7.10;;;6.40;;
43152;SDS011;28756;49.064;9.290;2022-09-01T06:56:24;7.40;;;6.60;;
43152;SDS011;28756;49.064;9.290;2022-09-01T06:58:54;7.28;;;6.50;;
43152;SDS011;28756;49.064;9.290;2022-09-01T07:01:20;8.50;;;7.00;;
43152;SDS011;28756;49.064;9.290;2022-09-01T07:03:48;7.47;;;6.68;;
43152;SDS011;28756;49.064;9.290;2022-09-01T07:06:20;7.10;;;6.40;;
43152;SDS011;28756;49.064;9.290;2022-09-01T07:08:54;7.70;;;6.90;;
43152;SDS011;28756;49.064;9.290;2022-09-01T07:11:31;7.78;;;6.97;;
43152;SDS011;28756;49.064;9.290;2022-09-01T07:14:01;9.80;;;6.47;;
43152;SDS011;28756;49.064;9.290;2022-09-01T07:16:30;7.63;;;6.80;;
43152;SDS011;28756;49.064;9.290;2022-09-01T07:19:04;7.07;;;6.38;;
43152;SDS011;28756;49.064;9.290;2022-09-01T07:21:37;6.57;;;5.80;;
43152;SDS011;28756;49.064;9.290;2022-09-01T07:24:03;7.60;;;6.15;;
43152;SDS011;28756;49.064;9.290;2022-09-01T07:26:30;7.07;;;6.38;;
43152;SDS011;28756;49.064;9.290;2022-09-01T07:29:00;6.55;;;5.90;;
43152;SDS011;28756;49.064;9.290;2022-09-01T07:31:28;7.47;;;6.10;;
43152;SDS011;28756;49.064;9.290;2022-09-01T07:34:01;5.85;;;5.25;;
43152;SDS011;28756;49.064;9.290;2022-09-01T07:36:38;6.22;;;5.63;;
43152;SDS011;28756;49.064;9.290;2022-09-01T07:39:07;6.40;;;5.70;;
43152;SDS011;28756;49.064;9.290;2022-09-01T07:41:35;5.65;;;5.13;;
43152;SDS011;28756;49.064;9.290;2022-09-01T07:44:02;6.00;;;5.40;;
43152;SDS011;28756;49.064;9.290;2022-09-01T07:46:29;6.22;;;5.47;;
43152;SDS011;28756;49.064;9.290;2022-09-01T07:48:57;5.82;;;5.22;;
43152;SDS011;28756;49.064;9.290;2022-09-01T07:51:25;6.30;;;4.93;;
43152;SDS011;28756;49.064;9.290;2022-09-01T07:53:52;5.47;;;4.97;;
43152;SDS011;28756;49.064;9.290;2022-09-01T07:56:19;5.32;;;4.80;;
43152;SDS011;28756;49.064;9.290;2022-09-01T07:58:47;7.07;;;5.05;;
43152;SDS011;28756;49.064;9.290;2022-09-01T08:01:16;5.20;;;4.70;;
43152;SDS011;28756;49.064;9.290;2022-09-01T08:03:46;5.35;;;4.20;;
43152;SDS011;28756;49.064;9.290;2022-09-01T08:06:16;4.35;;;3.95;;
43152;SDS011;28756;49.064;9.290;2022-09-01T08:08:45;5.20;;;4.30;;
43152;SDS011;28756;49.064;9.290;2022-09-01T08:11:15;4.35;;;3.95;;
43152;SDS011;28756;49.064;9.290;2022-09-01T08:13:47;4.57;;;4.10;;
43152;SDS011;28756;49.064;9.290;2022-09-01T08:16:13;4.63;;;4.00;;
43152;SDS011;28756;49.064;9.290;2022-09-01T08:18:39;4.90;;;4.25;;
43152;SDS011;28756;49.064;9.290;2022-09-01T08:21:08;4.63;;;3.60;;
43152;SDS011;28756;49.064;9.290;2022-09-01T08:23:36;4.20;;;3.80;;
43152;SDS011;28756;49.064;9.290;2022-09-01T08:26:07;4.15;;;3.78;;
43152;SDS011;28756;49.064;9.290;2022-09-01T08:28:36;4.28;;;3.88;;
43152;SDS011;28756;49.064;9.290;2022-09-01T08:31:08;3.97;;;3.58;;
43152;SDS011;28756;49.064;9.290;2022-09-01T08:33:37;4.50;;;4.10;;
43152;SDS011;28756;49.064;9.290;2022-09-01T08:36:08;5.40;;;4.47;;
43152;SDS011;28756;49.064;9.290;2022-09-01T08:38:38;5.03;;;4.50;;
43152;SDS011;28756;49.064;9.290;2022-09-01T08:41:05;4.85;;;4.28;;
43152;SDS011;28756;49.064;9.290;2022-09-01T08:46:44;6.88;;;5.85;;
43152;SDS011;28756;49.064;9.290;2022-09-01T08:49:20;6.25;;;5.57;;
43152;SDS011;28756;49.064;9.290;2022-09-01T08:51:50;6.95;;;5.82;;
43152;SDS011;28756;49.064;9.290;2022-09-01T08:54:45;6.63;;;5.93;;
43152;SDS011;28756;49.064;9.290;2022-09-01T08:57:36;6.00;;;5.25;;
43152;SDS011;28756;49.064;9.290;2022-09-01T09:00:05;6.72;;;6.03;;
43152;SDS011;28756;49.064;9.290;2022-09-01T09:02:56;5.88;;;5.38;;
43152;SDS011;28756;49.064;9.290;2022-09-01T09:05:50;7.35;;;5.95;;
43152;SDS011;28756;49.064;9.290;2022-09-01T09:17:18;5.30;;;4.80;;
43152;SDS011;28756;49.064;9.290;2022-09-01T09:19:51;4.97;;;4.40;;
43152;SDS011;28756;49.064;9.290;2022-09-01T09:22:18;4.60;;;4.03;;
43152;SDS011;28756;49.064;9.290;2022-09-01T09:27:48;4.90;;;4.18;;
43152;SDS011;28756;49.064;9.290;2022-09-01T09:30:19;5.88;;;4.75;;
43152;SDS011;28756;49.064;9.290;2022-09-01T09:35:43;4.63;;;4.20;;
43152;SDS011;28756;49.064;9.290;2022-09-01T09:40:56;4.45;;;3.88;;
43152;SDS011;28756;49.064;9.290;2022-09-01T09:46:50;5.47;;;3.60;;
43152;SDS011;28756;49.064;9.290;2022-09-01T09:49:21;4.97;;;3.72;;
43152;SDS011;28756;49.064;9.290;2022-09-01T09:51:56;3.95;;;3.35;;
43152;SDS011;28756;49.064;9.290;2022-09-01T09:57:31;4.65;;;4.25;;
43152;SDS011;28756;49.064;9.290;2022-09-01T10:00:07;4.05;;;3.65;;
43152;SDS011;28756;49.064;9.290;2022-09-01T10:02:47;4.15;;;3.75;;
43152;SDS011;28756;49.064;9.290;2022-09-01T10:07:52;4.47;;;3.22;;
43152;SDS011;28756;49.064;9.290;2022-09-01T10:10:25;4.57;;;3.20;;
43152;SDS011;28756;49.064;9.290;2022-09-01T10:13:19;3.67;;;3.00;;
43152;SDS011;28756;49.064;9.290;2022-09-01T10:15:55;3.60;;;3.30;;
43152;SDS011;28756;49.064;9.290;2022-09-01T10:18:29;4.75;;;3.47;;
43152;SDS011;28756;49.064;9.290;2022-09-01T10:21:11;3.85;;;3.42;;
43152;SDS011;28756;49.064;9.290;2022-09-01T10:23:42;3.70;;;3.33;;
43152;SDS011;28756;49.064;9.290;2022-09-01T10:26:09;3.92;;;3.33;;
43152;SDS011;28756;49.064;9.290;2022-09-01T10:28:44;3.65;;;3.17;;
43152;SDS011;28756;49.064;9.290;2022-09-01T10:31:24;2.90;;;2.60;;
43152;SDS011;28756;49.064;9.290;2022-09-01T10:33:50;3.70;;;2.60;;
43152;SDS011;28756;49.064;9.290;2022-09-01T10:36:17;2.75;;;2.50;;
43152;SDS011;28756;49.064;9.290;2022-09-01T10:38:43;3.20;;;2.90;;
43152;SDS011;28756;49.064;9.290;2022-09-01T10:41:09;2.88;;;2.67;;
43152;SDS011;28756;49.064;9.290;2022-09-01T10:44:19;2.60;;;2.40;;
43152;SDS011;28756;49.064;9.290;2022-09-01T10:46:56;2.45;;;2.25;;
43152;SDS011;28756;49.064;9.290;2022-09-01T10:51:57;2.78;;;2.53;;
43152;SDS011;28756;49.064;9.290;2022-09-01T10:54:56;3.30;;;2.92;;
43152;SDS011;28756;49.064;9.290;2022-09-01T10:57:39;2.50;;;2.30;;
43152;SDS011;28756;49.064;9.290;2022-09-01T11:14:20;3.50;;;2.38;;
43152;SDS011;28756;49.064;9.290;2022-09-01T11:22:35;2.53;;;2.33;;
43152;SDS011;28756;49.064;9.290;2022-09-01T11:28:07;3.30;;;3.00;;
43152;SDS011;28756;49.064;9.290;2022-09-01T11:30:46;2.75;;;2.55;;
43152;SDS011;28756;49.064;9.290;2022-09-01T11:41:54;3.45;;;2.60;;
43152;SDS011;28756;49.064;9.290;2022-09-01T11:47:17;2.75;;;2.42;;
43152;SDS011;28756;49.064;9.290;2022-09-01T11:49:54;2.53;;;2.20;;
43152;SDS011;28756;49.064;9.290;2022-09-01T11:52:28;2.45;;;2.25;;
43152;SDS011;28756;49.064;9.290;2022-09-01T11:54:59;5.90;;;2.40;;
43152;SDS011;28756;49.064;9.290;2022-09-01T12:00:00;2.22;;;2.03;;
43152;SDS011;28756;49.064;9.290;2022-09-01T12:02:32;2.53;;;2.33;;
43152;SDS011;28756;49.064;9.290;2022-09-01T12:05:00;2.50;;;2.30;;
43152;SDS011;28756;49.064;9.290;2022-09-01T12:07:48;2.38;;;2.17;;
43152;SDS011;28756;49.064;9.290;2022-09-01T12:15:34;2.67;;;2.42;;
43152;SDS011;28756;49.064;9.290;2022-09-01T12:20:47;2.50;;;2.30;;
43152;SDS011;28756;49.064;9.290;2022-09-01T12:23:22;2.83;;;2.50;;
43152;SDS011;28756;49.064;9.290;2022-09-01T12:25:58;3.00;;;2.70;;
43152;SDS011;28756;49.064;9.290;2022-09-01T12:28:27;2.50;;;2.30;;
43152;SDS011;28756;49.064;9.290;2022-09-01T12:30:55;2.53;;;2.33;;
43152;SDS011;28756;49.064;9.290;2022-09-01T12:33:25;2.80;;;2.60;;
43152;SDS011;28756;49.064;9.290;2022-09-01T12:36:09;2.78;;;2.58;;
43152;SDS011;28756;49.064;9.290;2022-09-01T12:38:45;2.65;;;2.45;;
43152;SDS011;28756;49.064;9.290;2022-09-01T12:41:22;4.63;;;2.20;;
43152;SDS011;28756;49.064;9.290;2022-09-01T12:47:11;2.70;;;2.50;;
43152;SDS011;28756;49.064;9.290;2022-09-01T12:50:00;2.60;;;2.40;;
43152;SDS011;28756;49.064;9.290;2022-09-01T12:52:50;2.55;;;2.35;;
43152;SDS011;28756;49.064;9.290;2022-09-01T12:55:23;2.45;;;2.25;;
43152;SDS011;28756;49.064;9.290;2022-09-01T12:57:59;2.53;;;2.33;;
43152;SDS011;28756;49.064;9.290;2022-09-01T13:00:29;2.65;;;2.45;;
43152;SDS011;28756;49.064;9.290;2022-09-01T13:08:23;2.13;;;1.95;;
43152;SDS011;28756;49.064;9.290;2022-09-01T13:11:03;2.30;;;2.10;;
43152;SDS011;28756;49.064;9.290;2022-09-01T13:13:32;2.05;;;1.90;;
43152;SDS011;28756;49.064;9.290;2022-09-01T13:16:01;2.30;;;2.10;;
43152;SDS011;28756;49.064;9.290;2022-09-01T13:18:32;1.95;;;1.83;;
43152;SDS011;28756;49.064;9.290;2022-09-01T13:20:58;2.00;;;1.80;;
43152;SDS011;28756;49.064;9.290;2022-09-01T13:23:24;1.95;;;1.85;;
43152;SDS011;28756;49.064;9.290;2022-09-01T13:25:50;2.95;;;1.90;;
43152;SDS011;28756;49.064;9.290;2022-09-01T13:28:16;2.63;;;2.05;;
43152;SDS011;28756;49.064;9.290;2022-09-01T13:30:44;1.90;;;1.80;;
43152;SDS011;28756;49.064;9.290;2022-09-01T13:33:18;2.13;;;1.92;;
43152;SDS011;28756;49.064;9.290;2022-09-01T13:35:43;1.98;;;1.85;;
43152;SDS011;28756;49.064;9.290;2022-09-01T13:38:09;2.10;;;1.90;;
43152;SDS011;28756;49.064;9.290;2022-09-01T13:40:35;2.40;;;2.15;;
43152;SDS011;28756;49.064;9.290;2022-09-01T13:43:01;2.58;;;1.60;;
43152;SDS011;28756;49.064;9.290;2022-09-01T13:45:28;2.13;;;1.80;;
43152;SDS011;28756;49.064;9.290;2022-09-01T13:47:54;2.63;;;2.13;;
43152;SDS011;28756;49.064;9.290;2022-09-01T13:50:20;2.67;;;1.95;;
43152;SDS011;28756;49.064;9.290;2022-09-01T13:52:49;1.90;;;1.80;;
43152;SDS011;28756;49.064;9.290;2022-09-01T13:55:21;1.98;;;1.80;;
43152;SDS011;28756;49.064;9.290;2022-09-01T13:57:57;1.98;;;1.80;;
43152;SDS011;28756;49.064;9.290;2022-09-01T14:00:24;1.77;;;1.67;;
43152;SDS011;28756;49.064;9.290;2022-09-01T14:02:56;1.90;;;1.80;;
43152;SDS011;28756;49.064;9.290;2022-09-01T14:05:27;1.95;;;1.85;;
43152;SDS011;28756;49.064;9.290;2022-09-01T14:07:57;1.70;;;1.60;;
43152;SDS011;28756;49.064;9.290;2022-09-01T14:10:25;1.83;;;1.73;;
43152;SDS011;28756;49.064;9.290;2022-09-01T14:12:55;1.85;;;1.70;;
43152;SDS011;28756;49.064;9.290;2022-09-01T14:15:21;1.90;;;1.70;;
43152;SDS011;28756;49.064;9.290;2022-09-01T14:17:50;1.42;;;1.33;;
43152;SDS011;28756;49.064;9.290;2022-09-01T14:20:21;2.03;;;1.40;;
43152;SDS011;28756;49.064;9.290;2022-09-01T14:22:55;1.92;;;1.73;;
43152;SDS011;28756;49.064;9.290;2022-09-01T14:25:22;1.70;;;1.60;;
43152;SDS011;28756;49.064;9.290;2022-09-01T14:27:48;2.35;;;1.63;;
43152;SDS011;28756;49.064;9.290;2022-09-01T14:30:19;2.28;;;1.85;;
43152;SDS011;28756;49.064;9.290;2022-09-01T14:32:48;2.40;;;1.90;;
43152;SDS011;28756;49.064;9.290;2022-09-01T14:35:16;1.70;;;1.60;;
43152;SDS011;28756;49.064;9.290;2022-09-01T14:37:44;1.77;;;1.67;;
43152;SDS011;28756;49.064;9.290;2022-09-01T14:40:10;2.70;;;1.60;;
43152;SDS011;28756;49.064;9.290;2022-09-01T14:42:43;2.35;;;1.80;;
43152;SDS011;28756;49.064;9.290;2022-09-01T14:45:13;1.98;;;1.70;;
43152;SDS011;28756;49.064;9.290;2022-09-01T14:47:53;2.50;;;1.88;;
43152;SDS011;28756;49.064;9.290;2022-09-01T14:50:20;1.88;;;1.50;;
43152;SDS011;28756;49.064;9.290;2022-09-01T14:52:47;1.70;;;1.60;;
43152;SDS011;28756;49.064;9.290;2022-09-01T14:55:16;2.15;;;1.90;;
43152;SDS011;28756;49.064;9.290;2022-09-01T14:57:42;3.25;;;2.00;;
43152;SDS011;28756;49.064;9.290;2022-09-01T15:00:09;2.97;;;2.00;;
43152;SDS011;28756;49.064;9.290;2022-09-01T15:02:36;2.70;;;1.70;;
43152;SDS011;28756;49.064;9.290;2022-09-01T15:05:04;1.98;;;1.80;;
43152;SDS011;28756;49.064;9.290;2022-09-01T15:07:30;2.47;;;1.90;;
43152;SDS011;28756;49.064;9.290;2022-09-01T15:09:56;2.15;;;1.67;;
43152;SDS011;28756;49.064;9.290;2022-09-01T15:12:23;1.75;;;1.63;;
43152;SDS011;28756;49.064;9.290;2022-09-01T15:14:50;1.67;;;1.58;;
43152;SDS011;28756;49.064;9.290;2022-09-01T15:17:16;1.80;;;1.60;;
43152;SDS011;28756;49.064;9.290;2022-09-01T15:19:42;1.60;;;1.50;;
43152;SDS011;28756;49.064;9.290;2022-09-01T15:22:08;1.70;;;1.60;;
43152;SDS011;28756;49.064;9.290;2022-09-01T15:24:36;2.90;;;1.80;;
43152;SDS011;28756;49.064;9.290;2022-09-01T15:27:02;1.92;;;1.60;;
43152;SDS011;28756;49.064;9.290;2022-09-01T15:29:30;2.38;;;1.58;;
43152;SDS011;28756;49.064;9.290;2022-09-01T15:31:58;1.60;;;1.50;;
43152;SDS011;28756;49.064;9.290;2022-09-01T15:34:25;1.52;;;1.42;;
43152;SDS011;28756;49.064;9.290;2022-09-01T15:36:51;1.88;;;1.70;;
43152;SDS011;28756;49.064;9.290;2022-09-01T15:39:17;2.47;;;1.40;;
43152;SDS011;28756;49.064;9.290;2022-09-01T15:41:43;1.40;;;1.30;;
43152;SDS011;28756;49.064;9.290;2022-09-01T15:44:09;2.50;;;1.70;;
43152;SDS011;28756;49.064;9.290;2022-09-01T15:46:35;1.40;;;1.30;;
43152;SDS011;28756;49.064;9.290;2022-09-01T15:49:07;1.65;;;1.48;;
43152;SDS011;28756;49.064;9.290;2022-09-01T15:51:38;1.70;;;1.60;;
43152;SDS011;28756;49.064;9.290;2022-09-01T15:54:07;2.60;;;1.38;;
43152;SDS011;28756;49.064;9.290;2022-09-01T15:56:38;3.00;;;1.50;;
43152;SDS011;28756;49.064;9.290;2022-09-01T15:59:05;1.42;;;1.33;;
43152;SDS011;28756;49.064;9.290;2022-09-01T16:01:33;1.98;;;1.25;;
43152;SDS011;28756;49.064;9.290;2022-09-01T16:04:05;1.60;;;1.50;;
43152;SDS011;28756;49.064;9.290;2022-09-01T16:06:33;1.83;;;1.60;;
43152;SDS011;28756;49.064;9.290;2022-09-01T16:08:59;1.58;;;1.40;;
43152;SDS011;28756;49.064;9.290;2022-09-01T16:11:25;1.92;;;1.60;;
43152;SDS011;28756;49.064;9.290;2022-09-01T16:13:52;3.05;;;1.40;;
43152;SDS011;28756;49.064;9.290;2022-09-01T16:25:38;1.88;;;1.60;;
43152;SDS011;28756;49.064;9.290;2022-09-01T16:28:11;1.63;;;1.48;;
43152;SDS011;28756;49.064;9.290;2022-09-01T16:30:51;1.50;;;1.38;;
43152;SDS011;28756;49.064;9.290;2022-09-01T16:33:23;1.50;;;1.40;;
43152;SDS011;28756;49.064;9.290;2022-09-01T16:35:58;2.00;;;1.55;;
43152;SDS011;28756;49.064;9.290;2022-09-01T16:38:47;1.67;;;1.58;;
43152;SDS011;28756;49.064;9.290;2022-09-01T16:52:25;2.03;;;1.58;;
43152;SDS011;28756;49.064;9.290;2022-09-01T16:55:11;2.03;;;1.83;;